createdAt,value
2019-01-26T00:01:16.539Z,14.87
2019-01-26T00:03:47.147Z,14.57
2019-01-26T00:06:17.571Z,14.27
2019-01-26T00:08:48.179Z,15.63
2019-01-26T00:11:18.585Z,14.03
2019-01-26T00:13:48.896Z,14.50
2019-01-26T00:16:21.178Z,14.77
2019-01-26T00:18:51.355Z,13.87
2019-01-26T00:21:21.696Z,13.40
2019-01-26T00:23:52.322Z,14.17
2019-01-26T00:26:40.333Z,14.13
2019-01-26T00:29:10.681Z,13.33
2019-01-26T00:31:41.738Z,12.73
2019-01-26T00:34:12.424Z,13.87
2019-01-26T00:36:43.006Z,13.97
2019-01-26T00:39:13.366Z,14.57
2019-01-26T00:41:43.711Z,13.93
2019-01-26T00:44:14.032Z,14.30
2019-01-26T00:46:44.656Z,14.43
2019-01-26T00:49:15.345Z,14.07
2019-01-26T00:51:45.832Z,15.63
2019-01-26T00:54:17.424Z,13.87
2019-01-26T00:56:47.708Z,13.70
2019-01-26T00:59:18.014Z,13.70
2019-01-26T01:01:48.488Z,14.90
2019-01-26T01:04:18.818Z,14.03
2019-01-26T01:06:49.368Z,13.70
2019-01-26T01:09:19.719Z,13.73
2019-01-26T01:11:50.077Z,12.77
2019-01-26T01:14:20.754Z,13.83
2019-01-26T01:16:51.100Z,13.53
2019-01-26T01:19:21.679Z,12.83
2019-01-26T01:21:52.055Z,14.43
2019-01-26T01:24:22.397Z,14.10
2019-01-26T01:26:52.680Z,14.40
2019-01-26T01:29:23.035Z,13.33
2019-01-26T01:31:53.493Z,13.13
2019-01-26T01:34:23.847Z,14.20
2019-01-26T01:36:54.112Z,13.97
2019-01-26T01:39:24.807Z,13.00
2019-01-26T01:41:55.168Z,14.43
2019-01-26T01:44:25.679Z,15.27
2019-01-26T01:46:56.017Z,13.47
2019-01-26T01:49:26.347Z,15.00
2019-01-26T01:51:56.796Z,14.63
2019-01-26T01:54:27.181Z,14.10
2019-01-26T01:56:57.754Z,14.37
2019-01-26T01:59:28.204Z,14.73
2019-01-26T02:01:58.497Z,15.90
2019-01-26T02:04:28.829Z,16.53
2019-01-26T02:06:59.438Z,15.37
2019-01-26T02:09:29.831Z,15.50
2019-01-26T02:12:00.414Z,17.07
2019-01-26T02:14:30.756Z,15.77
2019-01-26T02:17:01.164Z,18.87
2019-01-26T02:19:31.511Z,18.13
2019-01-26T02:22:03.251Z,18.40
2019-01-26T02:24:33.706Z,18.00
2019-01-26T02:27:04.132Z,20.73
2019-01-26T02:29:34.483Z,20.20
2019-01-26T02:32:05.037Z,23.07
2019-01-26T02:34:35.350Z,17.90
2019-01-26T02:37:05.694Z,20.30
2019-01-26T02:39:36.119Z,19.90
2019-01-26T02:42:06.402Z,20.10
2019-01-26T02:44:36.754Z,21.60
2019-01-26T02:47:07.225Z,23.17
2019-01-26T02:49:38.326Z,22.27
2019-01-26T02:52:08.663Z,22.00
2019-01-26T02:54:39.709Z,20.90
2019-01-26T02:57:09.989Z,23.00
2019-01-26T02:59:40.592Z,20.03
2019-01-26T03:02:11.067Z,20.43
2019-01-26T03:04:41.366Z,21.97
2019-01-26T03:07:11.750Z,19.30
2019-01-26T03:09:42.150Z,21.47
2019-01-26T03:12:31.859Z,20.53
2019-01-26T03:15:02.195Z,22.77
2019-01-26T03:17:32.882Z,19.47
2019-01-26T03:20:03.209Z,19.33
2019-01-26T03:22:33.539Z,22.67
2019-01-26T03:25:04.075Z,22.00
2019-01-26T03:27:34.455Z,21.73
2019-01-26T03:30:06.834Z,21.97
2019-01-26T03:32:37.550Z,22.53
2019-01-26T03:35:08.642Z,21.50
2019-01-26T03:37:38.979Z,22.43
2019-01-26T03:40:12.819Z,21.73
2019-01-26T03:42:43.173Z,21.80
2019-01-26T03:45:15.849Z,25.73
2019-01-26T03:47:46.931Z,22.07
2019-01-26T03:50:17.626Z,23.53
2019-01-26T03:52:48.019Z,21.27
2019-01-26T03:55:20.200Z,22.73
2019-01-26T03:57:51.181Z,22.13
2019-01-26T04:00:25.186Z,23.73
2019-01-26T04:02:55.541Z,23.03
2019-01-26T04:05:26.196Z,21.50
2019-01-26T04:07:56.587Z,24.10
2019-01-26T04:10:26.919Z,24.10
2019-01-26T04:12:57.256Z,22.23
2019-01-26T04:15:27.614Z,22.90
2019-01-26T04:17:58.909Z,23.60
2019-01-26T04:20:29.444Z,22.63
2019-01-26T04:23:00.073Z,22.63
2019-01-26T04:25:30.876Z,23.60
2019-01-26T04:28:01.238Z,23.93
2019-01-26T04:30:31.596Z,22.37
2019-01-26T04:33:02.222Z,24.27
2019-01-26T04:35:32.574Z,22.30
2019-01-26T04:38:02.967Z,22.83
2019-01-26T04:40:33.403Z,23.83
2019-01-26T04:43:03.739Z,22.90
2019-01-26T04:45:35.093Z,22.43
2019-01-26T04:48:06.156Z,22.23
2019-01-26T04:50:36.775Z,25.77
2019-01-26T04:53:07.133Z,22.03
2019-01-26T04:55:37.451Z,22.57
2019-01-26T04:58:07.822Z,21.13
2019-01-26T05:00:38.106Z,21.83
2019-01-26T05:03:09.072Z,19.80
2019-01-26T05:05:39.440Z,19.23
2019-01-26T05:08:09.798Z,18.83
2019-01-26T05:10:40.176Z,20.53
2019-01-26T05:13:10.920Z,18.40
2019-01-26T05:15:41.586Z,18.00
2019-01-26T05:18:12.245Z,18.53
2019-01-26T05:20:43.368Z,17.47
2019-01-26T05:23:13.913Z,17.43
2019-01-26T05:25:44.232Z,17.87
2019-01-26T05:28:14.978Z,17.63
2019-01-26T05:30:48.608Z,17.77
2019-01-26T05:33:19.182Z,16.17
2019-01-26T05:35:49.534Z,17.57
2019-01-26T05:38:20.170Z,17.90
2019-01-26T05:40:50.608Z,18.83
2019-01-26T05:43:20.920Z,17.80
2019-01-26T05:45:51.247Z,18.53
2019-01-26T05:48:21.644Z,18.07
2019-01-26T05:50:51.967Z,17.83
2019-01-26T05:53:22.586Z,17.10
2019-01-26T05:55:52.956Z,18.57
2019-01-26T05:58:23.530Z,18.57
2019-01-26T06:00:53.828Z,16.97
2019-01-26T06:03:24.154Z,17.00
2019-01-26T06:05:54.469Z,17.10
2019-01-26T06:08:24.834Z,19.17
2019-01-26T06:10:56.984Z,17.80
2019-01-26T06:13:27.619Z,18.07
2019-01-26T06:15:57.958Z,18.23
2019-01-26T06:18:28.638Z,17.30
2019-01-26T06:20:58.984Z,17.70
2019-01-26T06:23:29.309Z,18.57
2019-01-26T06:25:59.644Z,20.37
2019-01-26T06:28:29.973Z,17.73
2019-01-26T06:31:00.321Z,18.17
2019-01-26T06:33:30.656Z,18.90
2019-01-26T06:36:01.094Z,18.97
2019-01-26T06:38:31.508Z,19.00
2019-01-26T06:41:02.097Z,20.00
2019-01-26T06:43:32.729Z,18.83
2019-01-26T06:46:03.357Z,20.40
2019-01-26T06:48:33.839Z,22.60
2019-01-26T06:51:04.410Z,20.17
2019-01-26T06:53:34.708Z,21.27
2019-01-26T06:56:05.079Z,21.90
2019-01-26T06:58:35.407Z,22.07
2019-01-26T07:01:06.748Z,20.47
2019-01-26T07:03:37.369Z,21.90
2019-01-26T07:06:32.874Z,23.60
2019-01-26T07:09:04.142Z,21.50
2019-01-26T07:11:34.513Z,20.83
2019-01-26T07:14:05.370Z,20.80
2019-01-26T07:16:36.040Z,21.13
2019-01-26T07:19:06.575Z,21.30
2019-01-26T07:21:36.930Z,20.07
2019-01-26T07:24:07.278Z,20.47
2019-01-26T07:26:37.892Z,20.40
2019-01-26T07:29:08.620Z,20.50
2019-01-26T07:31:39.230Z,22.03
2019-01-26T07:34:09.614Z,19.70
2019-01-26T07:36:40.044Z,19.63
2019-01-26T07:39:11.276Z,19.20
2019-01-26T07:41:41.637Z,19.43
2019-01-26T07:44:12.390Z,19.80
2019-01-26T07:46:42.757Z,17.17
2019-01-26T07:49:13.111Z,18.10
2019-01-26T07:51:43.448Z,18.70
2019-01-26T07:54:13.809Z,15.97
2019-01-26T07:56:44.128Z,17.57
2019-01-26T07:59:14.448Z,17.40
2019-01-26T08:01:45.044Z,16.60
2019-01-26T08:04:15.650Z,15.93
2019-01-26T08:06:45.973Z,17.60
2019-01-26T08:09:16.622Z,15.47
2019-01-26T08:11:46.951Z,16.13
2019-01-26T08:14:17.324Z,15.90
2019-01-26T08:16:47.669Z,14.77
2019-01-26T08:19:18.079Z,16.20
2019-01-26T08:21:48.774Z,15.03
2019-01-26T08:24:19.068Z,14.97
2019-01-26T08:26:49.428Z,16.07
2019-01-26T08:29:19.781Z,14.13
2019-01-26T08:31:50.210Z,13.93
2019-01-26T08:34:20.547Z,13.93
2019-01-26T08:36:50.858Z,12.77
2019-01-26T08:39:21.444Z,15.03
2019-01-26T08:41:52.010Z,13.57
2019-01-26T08:44:22.313Z,13.90
2019-01-26T08:46:52.938Z,14.57
2019-01-26T08:49:23.269Z,13.60
2019-01-26T08:51:53.623Z,12.93
2019-01-26T08:54:23.998Z,13.83
2019-01-26T08:56:54.609Z,13.43
2019-01-26T08:59:24.925Z,14.23
2019-01-26T09:02:05.980Z,13.63
2019-01-26T09:04:36.309Z,14.30
2019-01-26T09:07:12.757Z,14.10
2019-01-26T09:09:43.118Z,14.50
2019-01-26T09:12:13.815Z,13.17
2019-01-26T09:14:44.432Z,15.00
2019-01-26T09:17:14.840Z,14.77
2019-01-26T09:19:45.493Z,13.40
2019-01-26T09:22:15.838Z,14.87
2019-01-26T09:24:46.430Z,14.23
2019-01-26T09:27:16.814Z,14.70
2019-01-26T09:29:47.151Z,13.77
2019-01-26T09:32:17.755Z,14.27
2019-01-26T09:34:48.091Z,13.40
2019-01-26T09:37:18.433Z,12.97
2019-01-26T09:39:48.785Z,12.90
2019-01-26T09:42:19.386Z,12.83
2019-01-26T09:44:50.302Z,12.23
2019-01-26T09:47:20.739Z,12.63
2019-01-26T09:49:51.022Z,12.60
2019-01-26T09:52:21.689Z,11.90
2019-01-26T09:54:52.013Z,12.03
2019-01-26T09:57:22.371Z,12.20
2019-01-26T09:59:52.714Z,12.10
2019-01-26T10:02:23.081Z,13.23
2019-01-26T10:04:53.389Z,13.13
2019-01-26T10:07:23.739Z,13.23
2019-01-26T10:09:54.153Z,12.87
2019-01-26T10:12:24.811Z,16.10
2019-01-26T10:14:55.159Z,13.80
2019-01-26T10:17:25.507Z,13.43
2019-01-26T10:19:56.162Z,14.33
2019-01-26T10:22:26.501Z,14.80
2019-01-26T10:24:57.199Z,15.73
2019-01-26T10:27:27.566Z,16.93
2019-01-26T10:30:00.963Z,16.13
2019-01-26T10:32:31.671Z,15.77
2019-01-26T10:35:02.482Z,15.73
2019-01-26T10:37:32.849Z,16.57
2019-01-26T10:40:04.842Z,19.27
2019-01-26T10:42:36.301Z,18.90
2019-01-26T10:45:08.129Z,18.93
2019-01-26T10:47:38.469Z,17.37
2019-01-26T10:50:09.169Z,19.43
2019-01-26T10:52:39.549Z,19.13
2019-01-26T10:55:11.261Z,18.17
2019-01-26T10:57:41.608Z,20.60
2019-01-26T11:00:15.581Z,19.93
2019-01-26T11:02:46.224Z,18.87
2019-01-26T11:05:16.891Z,17.70
2019-01-26T11:07:47.221Z,16.93
2019-01-26T11:10:18.126Z,16.50
2019-01-26T11:12:48.471Z,16.10
2019-01-26T11:15:18.905Z,15.40
2019-01-26T11:17:49.276Z,14.57
2019-01-26T11:20:20.171Z,19.10
2019-01-26T11:22:50.498Z,16.00
2019-01-26T11:25:20.833Z,15.30
2019-01-26T11:27:51.284Z,16.40
2019-01-26T11:30:23.552Z,15.97
2019-01-26T11:32:53.896Z,16.27
2019-01-26T11:35:24.646Z,15.73
2019-01-26T11:37:54.988Z,18.70
2019-01-26T11:40:25.338Z,16.70
2019-01-26T11:42:55.689Z,18.27
2019-01-26T11:45:43.714Z,19.83
2019-01-26T11:48:19.052Z,17.70
2019-01-26T11:50:53.587Z,18.60
2019-01-26T11:53:24.635Z,17.93
2019-01-26T11:55:59.680Z,17.20
2019-01-26T11:58:30.079Z,17.13
2019-01-26T12:01:17.973Z,17.80
2019-01-26T12:04:11.052Z,17.70
2019-01-26T12:06:46.419Z,16.50
2019-01-26T12:09:18.328Z,14.70
2019-01-26T12:11:48.655Z,15.73
2019-01-26T12:14:19.083Z,15.67
2019-01-26T12:16:49.474Z,14.10
2019-01-26T12:19:22.428Z,14.87
2019-01-26T12:21:52.421Z,16.10
2019-01-26T12:24:22.754Z,16.50
2019-01-26T12:26:53.147Z,17.03
2019-01-26T12:29:23.485Z,15.80
2019-01-26T12:31:53.864Z,15.43
2019-01-26T12:34:24.483Z,14.87
2019-01-26T12:36:55.428Z,14.40
2019-01-26T12:39:25.837Z,16.13
2019-01-26T12:41:56.481Z,14.90
2019-01-26T12:44:26.952Z,15.47
2019-01-26T12:46:57.802Z,14.50
2019-01-26T12:49:29.594Z,15.80
2019-01-26T12:52:00.916Z,14.63
2019-01-26T12:54:31.236Z,13.90
2019-01-26T12:57:01.837Z,13.70
2019-01-26T12:59:32.406Z,13.40
2019-01-26T13:02:06.864Z,14.50
2019-01-26T13:04:37.304Z,13.03
2019-01-26T13:07:07.643Z,13.33
2019-01-26T13:09:37.982Z,12.97
2019-01-26T13:12:09.419Z,11.27
2019-01-26T13:14:39.780Z,11.53
2019-01-26T13:17:10.732Z,12.17
2019-01-26T13:19:41.092Z,11.43
2019-01-26T13:22:11.520Z,11.57
2019-01-26T13:24:41.849Z,10.70
2019-01-26T13:27:12.463Z,10.80
2019-01-26T13:29:42.858Z,11.53
2019-01-26T13:32:15.190Z,11.10
2019-01-26T13:34:45.605Z,10.97
2019-01-26T13:37:18.051Z,11.77
2019-01-26T13:39:51.612Z,11.17
2019-01-26T13:42:21.936Z,11.20
2019-01-26T13:44:52.359Z,11.40
2019-01-26T13:47:22.705Z,13.17
2019-01-26T13:49:54.132Z,12.43
2019-01-26T13:52:24.407Z,11.60
2019-01-26T13:54:55.967Z,12.93
2019-01-26T13:57:31.443Z,12.50
2019-01-26T14:00:01.816Z,12.50
2019-01-26T14:02:32.209Z,12.50
2019-01-26T14:05:02.637Z,11.60
2019-01-26T14:07:33.052Z,11.20
2019-01-26T14:10:03.680Z,11.17
2019-01-26T14:12:34.191Z,10.80
2019-01-26T14:15:06.047Z,11.83
2019-01-26T14:17:36.385Z,12.87
2019-01-26T14:20:10.966Z,13.90
2019-01-26T14:22:41.625Z,14.80
2019-01-26T14:25:12.386Z,15.33
2019-01-26T14:27:42.981Z,17.87
2019-01-26T14:30:29.976Z,17.67
2019-01-26T14:33:00.419Z,19.63
2019-01-26T14:35:30.890Z,21.43
2019-01-26T14:38:01.296Z,21.53
2019-01-26T14:40:31.617Z,21.53
2019-01-26T14:43:04.572Z,21.60
2019-01-26T14:45:35.213Z,21.50
2019-01-26T14:48:06.416Z,22.33
2019-01-26T14:50:40.097Z,21.73
2019-01-26T14:53:11.059Z,20.63
2019-01-26T14:55:42.149Z,21.73
2019-01-26T14:58:12.538Z,21.50
2019-01-26T15:00:42.927Z,22.00
2019-01-26T15:03:13.398Z,22.37
2019-01-26T15:05:43.755Z,23.53
2019-01-26T15:08:15.197Z,25.27
2019-01-26T15:10:47.658Z,25.90
2019-01-26T15:13:18.066Z,25.57
2019-01-26T15:15:48.442Z,25.93
2019-01-26T15:18:18.845Z,26.90
2019-01-26T15:20:49.589Z,25.87
2019-01-26T15:23:19.890Z,25.47
2019-01-26T15:25:50.298Z,24.73
2019-01-26T15:28:27.478Z,26.00
2019-01-26T15:30:58.270Z,32.27
2019-01-26T15:33:31.971Z,27.20
2019-01-26T15:36:08.703Z,24.87
2019-01-26T15:38:34.391Z,27.07
2019-01-26T15:41:04.988Z,25.60
2019-01-26T15:43:35.399Z,24.57
2019-01-26T15:46:05.741Z,23.63
2019-01-26T15:48:36.388Z,24.60
2019-01-26T15:51:06.783Z,23.63
2019-01-26T15:53:37.415Z,23.43
2019-01-26T15:56:07.854Z,23.60
2019-01-26T15:58:38.572Z,21.63
2019-01-26T16:01:09.163Z,22.67
2019-01-26T16:03:39.617Z,22.73
2019-01-26T16:06:09.997Z,22.50
2019-01-26T16:08:48.634Z,22.00
2019-01-26T16:11:18.993Z,22.30
2019-01-26T16:13:49.654Z,21.53
2019-01-26T16:16:20.012Z,23.93
2019-01-26T16:18:50.622Z,23.60
2019-01-26T16:21:20.983Z,21.83
2019-01-26T16:23:51.658Z,22.20
2019-01-26T16:26:23.064Z,21.23
2019-01-26T16:28:53.440Z,19.67
2019-01-26T16:31:23.787Z,19.63
2019-01-26T16:33:54.390Z,19.77
2019-01-26T16:36:25.148Z,18.87
2019-01-26T16:38:55.797Z,18.87
2019-01-26T16:41:26.556Z,18.27
2019-01-26T16:43:57.358Z,17.57
2019-01-26T16:46:27.757Z,17.10
2019-01-26T16:48:58.441Z,17.10
2019-01-26T16:51:29.178Z,17.87
2019-01-26T16:53:59.842Z,16.80
2019-01-26T16:56:30.786Z,18.90
2019-01-26T16:59:01.129Z,20.07
2019-01-26T17:01:31.744Z,19.07
2019-01-26T17:04:02.093Z,19.27
2019-01-26T17:06:32.483Z,19.80
2019-01-26T17:09:03.802Z,20.07
2019-01-26T17:11:34.215Z,20.40
2019-01-26T17:14:04.654Z,20.43
2019-01-26T17:16:35.086Z,20.23
2019-01-26T17:19:05.597Z,20.67
2019-01-26T17:21:36.050Z,21.37
2019-01-26T17:24:06.709Z,21.73
2019-01-26T17:26:37.123Z,22.83
2019-01-26T17:29:07.500Z,23.13
2019-01-26T17:31:38.000Z,24.17
2019-01-26T17:34:08.361Z,23.23
2019-01-26T17:36:39.128Z,22.93
2019-01-26T17:39:10.671Z,24.17
2019-01-26T17:41:41.021Z,24.67
2019-01-26T17:44:11.341Z,24.47
2019-01-26T17:46:41.793Z,24.73
2019-01-26T17:49:12.197Z,25.90
2019-01-26T17:51:42.603Z,26.47
2019-01-26T17:54:12.965Z,26.10
2019-01-26T17:56:43.419Z,26.17
2019-01-26T17:59:13.786Z,27.23
2019-01-26T18:01:44.401Z,28.67
2019-01-26T18:04:14.909Z,28.30
2019-01-26T18:06:45.272Z,26.17
2019-01-26T18:09:16.043Z,28.17
2019-01-26T18:11:46.406Z,27.43
2019-01-26T18:14:16.805Z,27.57
2019-01-26T18:16:47.184Z,27.23
2019-01-26T18:19:17.558Z,28.03
2019-01-26T18:21:48.294Z,29.23
2019-01-26T18:24:18.662Z,30.43
2019-01-26T18:26:49.050Z,31.93
2019-01-26T18:29:19.486Z,31.37
2019-01-26T18:31:49.866Z,33.17
2019-01-26T18:34:20.475Z,31.37
2019-01-26T18:36:51.171Z,33.80
2019-01-26T18:39:21.527Z,32.57
2019-01-26T18:41:52.156Z,32.43
2019-01-26T18:44:23.380Z,32.53
2019-01-26T18:46:53.750Z,32.37
2019-01-26T18:49:24.131Z,32.13
2019-01-26T18:51:54.484Z,31.07
2019-01-26T18:54:24.862Z,33.60
2019-01-26T18:56:55.229Z,32.77
2019-01-26T18:59:26.032Z,32.40
2019-01-26T19:01:56.807Z,31.30
2019-01-26T19:04:38.248Z,29.93
2019-01-26T19:07:08.634Z,28.80
2019-01-26T19:09:39.222Z,28.53
2019-01-26T19:12:09.604Z,29.03
2019-01-26T19:14:39.953Z,28.23
2019-01-26T19:17:10.572Z,27.57
2019-01-26T19:19:40.979Z,29.57
2019-01-26T19:22:11.591Z,32.20
2019-01-26T19:24:42.313Z,30.30
2019-01-26T19:27:13.612Z,28.93
2019-01-26T19:29:43.989Z,27.10
2019-01-26T19:32:14.900Z,26.97
2019-01-26T19:34:45.210Z,27.80
2019-01-26T19:37:15.588Z,27.73
2019-01-26T19:39:46.164Z,27.43
2019-01-26T19:42:16.646Z,27.67
2019-01-26T19:44:47.356Z,30.07
2019-01-26T19:47:17.699Z,29.90
2019-01-26T19:49:48.078Z,29.83
2019-01-26T19:52:19.069Z,27.10
2019-01-26T19:54:49.417Z,28.33
2019-01-26T19:57:19.805Z,29.40
2019-01-26T19:59:50.465Z,28.57
2019-01-26T20:02:20.842Z,28.67
2019-01-26T20:04:51.207Z,27.80
2019-01-26T20:07:22.267Z,28.80
2019-01-26T20:09:52.662Z,29.83
2019-01-26T20:12:23.501Z,29.27
2019-01-26T20:14:53.840Z,29.97
2019-01-26T20:17:24.497Z,28.60
2019-01-26T20:19:54.921Z,30.13
2019-01-26T20:22:25.253Z,30.33
2019-01-26T20:24:55.626Z,31.17
2019-01-26T20:27:25.985Z,30.60
2019-01-26T20:29:56.351Z,31.67
2019-01-26T20:32:27.013Z,27.73
2019-01-26T20:34:57.753Z,27.43
2019-01-26T20:37:28.194Z,27.37
2019-01-26T20:39:58.775Z,24.90
2019-01-26T20:42:29.078Z,25.40
2019-01-26T20:44:59.705Z,25.43
2019-01-26T20:47:31.398Z,23.87
2019-01-26T20:50:01.799Z,23.47
2019-01-26T20:52:32.526Z,23.07
2019-01-26T20:55:03.158Z,23.07
2019-01-26T20:57:33.523Z,22.57
2019-01-26T21:00:04.302Z,20.57
2019-01-26T21:02:34.659Z,22.20
2019-01-26T21:05:05.644Z,21.90
2019-01-26T21:07:36.006Z,21.77
2019-01-26T21:10:12.283Z,22.13
2019-01-26T21:12:42.666Z,22.17
2019-01-26T21:15:13.033Z,22.97
2019-01-26T21:17:43.450Z,22.90
2019-01-26T21:20:15.964Z,22.90
2019-01-26T21:22:46.617Z,23.00
2019-01-26T21:25:17.145Z,22.63
2019-01-26T21:27:47.602Z,22.27
2019-01-26T21:30:24.407Z,22.50
2019-01-26T21:32:54.895Z,23.63
2019-01-26T21:35:26.834Z,21.73
2019-01-26T21:37:57.196Z,23.17
2019-01-26T21:40:30.585Z,23.57
2019-01-26T21:43:01.969Z,23.03
2019-01-26T21:45:32.503Z,23.27
2019-01-26T21:48:02.882Z,23.87
2019-01-26T21:50:33.614Z,21.50
2019-01-26T21:53:04.166Z,22.70
2019-01-26T21:55:34.858Z,21.63
2019-01-26T21:58:05.567Z,21.87
2019-01-26T22:00:35.980Z,23.70
2019-01-26T22:03:06.394Z,22.90
2019-01-26T22:05:36.738Z,24.00
2019-01-26T22:08:07.222Z,24.23
2019-01-26T22:10:37.583Z,25.23
2019-01-26T22:13:08.024Z,25.30
2019-01-26T22:15:38.422Z,26.87
2019-01-26T22:18:09.070Z,26.13
2019-01-26T22:20:39.333Z,27.00
2019-01-26T22:23:10.200Z,28.80
2019-01-26T22:25:40.804Z,27.57
2019-01-26T22:28:11.189Z,26.00
2019-01-26T22:30:41.480Z,25.40
2019-01-26T22:33:12.101Z,25.10
2019-01-26T22:35:42.495Z,24.17
2019-01-26T22:38:12.816Z,22.57
2019-01-26T22:40:43.221Z,21.73
2019-01-26T22:43:13.630Z,21.13
2019-01-26T22:45:43.980Z,21.50
2019-01-26T22:48:14.442Z,18.83
2019-01-26T22:50:44.874Z,17.80
2019-01-26T22:53:15.280Z,17.47
2019-01-26T22:55:45.707Z,16.97
2019-01-26T22:58:16.349Z,16.40
2019-01-26T23:01:12.928Z,15.50
2019-01-26T23:04:28.418Z,14.53
2019-01-26T23:07:49.649Z,14.07
2019-01-26T23:11:26.507Z,13.13
2019-01-26T23:14:22.829Z,13.20
2019-01-26T23:18:10.870Z,12.93
2019-01-26T23:20:52.797Z,10.77
2019-01-26T23:24:31.275Z,11.07
2019-01-26T23:27:20.880Z,10.57
2019-01-26T23:31:05.323Z,10.67
2019-01-26T23:33:35.640Z,10.07
2019-01-26T23:36:06.075Z,9.53
2019-01-26T23:38:36.469Z,9.47
2019-01-26T23:41:06.992Z,8.03
2019-01-26T23:43:37.447Z,8.97
2019-01-26T23:46:07.978Z,8.40
2019-01-26T23:48:38.346Z,8.07
2019-01-26T23:51:09.813Z,7.23
2019-01-26T23:53:40.319Z,7.30
2019-01-26T23:56:11.011Z,7.30
2019-01-26T23:58:41.446Z,6.83
